createdAt,value
2022-09-02T00:01:30.313Z,95685.31
2022-09-02T00:07:06.302Z,95680.81
2022-09-02T00:12:44.172Z,95674.55
2022-09-02T00:15:34.323Z,95664.32
2022-09-02T00:18:23.851Z,95666.23
2022-09-02T00:23:52.611Z,95661.25
2022-09-02T00:29:33.201Z,95664.69
2022-09-02T00:35:02.947Z,95666.16
2022-09-02T00:37:52.447Z,95665.63
2022-09-02T00:40:44.935Z,95661.95
2022-09-02T00:46:32.302Z,95664.95
2022-09-02T00:49:24.528Z,95661.34
2022-09-02T00:52:15.883Z,95662.14
2022-09-02T00:55:09.157Z,95657.29
2022-09-02T00:58:00.779Z,95659.70
2022-09-02T01:00:52.457Z,95661.50
2022-09-02T01:03:41.973Z,95668.33
2022-09-02T01:09:14.454Z,95653.19
2022-09-02T01:12:04.046Z,95661.39
2022-09-02T01:17:34.629Z,95660.77
2022-09-02T01:20:28.635Z,95652.17
2022-09-02T01:23:18.543Z,95655.27
2022-09-02T01:28:53.738Z,95657.95
2022-09-02T01:34:29.179Z,95656.59
2022-09-02T01:37:18.349Z,95654.36
2022-09-02T01:40:10.214Z,95658.46
2022-09-02T01:43:02.216Z,95647.53
2022-09-02T01:45:52.125Z,95652.81
2022-09-02T01:48:43.244Z,95651.02
2022-09-02T01:54:17.575Z,95645.38
2022-09-02T01:59:55.468Z,95640.03
2022-09-02T02:05:32.839Z,95635.38
2022-09-02T02:11:13.005Z,95638.39
2022-09-02T02:16:58.533Z,95638.83
2022-09-02T02:22:57.299Z,95646.02
2022-09-02T02:28:38.829Z,95651.45
2022-09-02T02:31:27.924Z,95650.23
2022-09-02T02:34:18.873Z,95647.84
2022-09-02T02:37:07.424Z,95649.87
2022-09-02T02:42:41.492Z,95639.88
2022-09-02T02:48:19.708Z,95638.39
2022-09-02T02:53:58.997Z,95640.09
2022-09-02T02:56:47.671Z,95643.78
2022-09-02T02:59:37.332Z,95644.77
2022-09-02T03:02:26.086Z,95653.05
2022-09-02T03:05:15.479Z,95650.25
2022-09-02T03:10:57.567Z,95649.44
2022-09-02T03:16:33.757Z,95651.38
2022-09-02T03:19:41.186Z,95654.81
2022-09-02T03:22:32.165Z,95649.80
2022-09-02T03:28:05.319Z,95651.59
2022-09-02T03:33:42.182Z,95645.14
2022-09-02T03:36:32.866Z,95650.09
2022-09-02T03:42:05.740Z,95646.64
2022-09-02T03:44:54.524Z,95649.66
2022-09-02T03:50:27.488Z,95646.97
2022-09-02T03:55:59.162Z,95653.58
2022-09-02T03:58:49.283Z,95649.89
2022-09-02T04:01:38.326Z,95646.20
2022-09-02T04:04:26.859Z,95649.45
2022-09-02T04:07:16.214Z,95641.42
2022-09-02T04:12:52.803Z,95648.02
2022-09-02T04:15:43.898Z,95650.77
2022-09-02T04:24:09.960Z,95650.26
2022-09-02T04:27:03.357Z,95648.20
2022-09-02T04:32:31.438Z,95652.91
2022-09-02T04:38:12.010Z,95646.91
2022-09-02T04:41:01.215Z,95639.90
2022-09-02T04:43:50.741Z,95651.06
2022-09-02T04:49:32.726Z,95645.20
2022-09-02T04:55:10.321Z,95645.12
2022-09-02T04:57:58.775Z,95644.06
2022-09-02T05:00:49.165Z,95646.31
2022-09-02T05:06:21.751Z,95645.61
2022-09-02T05:09:10.627Z,95645.42
2022-09-02T05:12:01.987Z,95643.73
2022-09-02T05:17:41.276Z,95647.67
2022-09-02T05:23:18.578Z,95647.72
2022-09-02T05:28:55.877Z,95641.34
2022-09-02T05:37:38.595Z,95640.77
2022-09-02T05:40:28.849Z,95647.57
2022-09-02T05:43:18.539Z,95644.71
2022-09-02T05:49:08.968Z,95651.39
2022-09-02T05:51:58.700Z,95646.20
2022-09-02T05:57:28.643Z,95651.32
2022-09-02T06:00:18.613Z,95644.84
2022-09-02T06:08:40.766Z,95653.83
2022-09-02T06:11:29.386Z,95664.45
2022-09-02T06:17:09.947Z,95658.80
2022-09-02T06:22:45.960Z,95660.95
2022-09-02T06:25:34.537Z,95659.48
2022-09-02T06:28:22.932Z,95654.17
2022-09-02T06:34:01.668Z,95650.04
2022-09-02T06:36:52.756Z,95648.84
2022-09-02T06:42:28.415Z,95647.19
2022-09-02T06:45:16.944Z,95649.47
2022-09-02T06:48:07.932Z,95652.80
2022-09-02T06:53:42.371Z,95642.45
2022-09-02T06:59:19.759Z,95639.64
2022-09-02T07:05:07.853Z,95638.00
2022-09-02T07:10:43.444Z,95636.05
2022-09-02T07:16:27.195Z,95635.97
2022-09-02T07:21:49.279Z,95628.93
2022-09-02T07:24:38.676Z,95640.71
2022-09-02T07:30:15.937Z,95635.63
2022-09-02T07:33:05.469Z,95637.17
2022-09-02T07:35:54.017Z,95637.59
2022-09-02T07:41:30.948Z,95636.42
2022-09-02T07:47:20.718Z,95626.50
2022-09-02T07:50:20.199Z,95632.95
2022-09-02T07:53:00.956Z,95630.39
2022-09-02T07:58:36.934Z,95635.63
2022-09-02T08:01:26.337Z,95646.17
2022-09-02T08:07:04.777Z,95637.00
2022-09-02T08:12:42.041Z,95638.38
2022-09-02T08:15:31.175Z,95647.22
2022-09-02T08:21:10.715Z,95644.83
2022-09-02T08:27:00.810Z,95645.10
2022-09-02T08:29:49.135Z,95647.52
2022-09-02T08:32:37.989Z,95640.40
2022-09-02T08:38:16.650Z,95629.33
2022-09-02T08:43:52.720Z,95629.38
2022-09-02T08:49:31.110Z,95632.69
2022-09-02T08:55:10.003Z,95630.88
2022-09-02T09:03:25.109Z,95626.92
2022-09-02T09:06:15.854Z,95626.52
2022-09-02T09:09:08.511Z,95622.61
2022-09-02T09:14:41.725Z,95615.55
2022-09-02T09:20:22.769Z,95614.73
2022-09-02T09:25:54.805Z,95616.23
2022-09-02T09:31:31.190Z,95615.75
2022-09-02T09:37:08.025Z,95603.80
2022-09-02T09:42:49.581Z,95598.61
2022-09-02T09:45:37.289Z,95603.41
2022-09-02T09:51:17.810Z,95591.53
2022-09-02T09:54:17.293Z,95592.25
2022-09-02T09:57:21.925Z,95590.33
2022-09-02T10:03:03.480Z,95587.06
2022-09-02T10:08:35.578Z,95583.81
2022-09-02T10:14:14.077Z,95574.72
2022-09-02T10:20:09.439Z,95577.31
2022-09-02T10:26:02.707Z,95567.66
2022-09-02T10:35:36.864Z,95570.19
2022-09-02T10:44:33.730Z,95561.47
2022-09-02T10:50:15.440Z,95557.52
2022-09-02T10:53:16.095Z,95551.52
2022-09-02T10:58:50.103Z,95549.89
2022-09-02T11:04:28.085Z,95541.72
2022-09-02T11:07:19.654Z,95543.38
2022-09-02T11:10:10.784Z,95543.88
2022-09-02T11:18:40.659Z,95537.84
2022-09-02T11:24:28.061Z,95542.37
2022-09-02T11:30:20.863Z,95542.66
2022-09-02T11:35:57.411Z,95533.40
2022-09-02T11:38:48.954Z,95530.42
2022-09-02T11:45:03.177Z,95533.00
2022-09-02T11:48:28.466Z,95536.45
2022-09-02T11:51:40.395Z,95538.20
2022-09-02T11:54:31.157Z,95533.61
2022-09-02T11:57:24.924Z,95535.72
2022-09-02T12:00:30.748Z,95526.06
2022-09-02T12:06:24.119Z,95517.70
2022-09-02T12:09:14.402Z,95515.37
2022-09-02T12:15:16.819Z,95510.94
2022-09-02T12:21:23.243Z,95505.74
2022-09-02T12:27:26.997Z,95491.70
2022-09-02T12:33:07.943Z,95494.29
2022-09-02T12:35:58.522Z,95491.88
2022-09-02T12:41:36.337Z,95475.31
2022-09-02T12:47:10.826Z,95465.87
2022-09-02T12:52:49.763Z,95466.53
2022-09-02T12:58:21.595Z,95464.36
2022-09-02T13:01:18.694Z,95451.98
2022-09-02T13:10:51.669Z,95445.70
2022-09-02T13:14:29.833Z,95446.41
2022-09-02T13:20:46.495Z,95435.82
2022-09-02T13:23:57.782Z,95425.08
2022-09-02T13:33:03.008Z,95407.90
2022-09-02T13:38:42.474Z,95404.15
2022-09-02T13:44:25.370Z,95401.81
2022-09-02T13:47:17.644Z,95409.78
2022-09-02T13:55:44.927Z,95405.03
2022-09-02T14:01:27.069Z,95404.13
2022-09-02T14:04:17.298Z,95403.33
2022-09-02T14:09:54.270Z,95410.91
2022-09-02T14:15:35.868Z,95409.13
2022-09-02T14:21:10.218Z,95407.34
2022-09-02T14:23:58.335Z,95397.37
2022-09-02T14:26:49.186Z,95397.37
2022-09-02T14:29:39.434Z,95391.09
2022-09-02T14:35:23.651Z,95381.25
2022-09-02T14:38:13.329Z,95383.59
2022-09-02T14:43:52.278Z,95386.14
2022-09-02T14:46:45.873Z,95384.78
2022-09-02T14:52:21.797Z,95399.95
2022-09-02T14:58:04.314Z,95400.56
2022-09-02T15:00:55.477Z,95398.69
2022-09-02T15:06:26.690Z,95410.06
2022-09-02T15:12:00.799Z,95418.96
2022-09-02T15:14:46.850Z,95430.06
2022-09-02T15:17:35.149Z,95436.92
2022-09-02T15:23:11.923Z,95428.06
2022-09-02T15:28:49.421Z,95423.27
2022-09-02T15:31:37.726Z,95424.86
2022-09-02T15:37:17.578Z,95430.05
2022-09-02T15:42:49.989Z,95431.67
2022-09-02T15:45:41.123Z,95433.30
2022-09-02T15:48:29.528Z,95436.00
2022-09-02T15:53:59.333Z,95436.55
2022-09-02T15:56:48.403Z,95438.91
2022-09-02T16:02:27.299Z,95448.16
2022-09-02T16:08:01.925Z,95436.33
2022-09-02T16:10:49.890Z,95443.39
2022-09-02T16:13:39.235Z,95434.87
2022-09-02T16:19:30.635Z,95434.73
2022-09-02T16:25:12.580Z,95437.23
2022-09-02T16:30:48.696Z,95442.72
2022-09-02T16:36:24.374Z,95441.41
2022-09-02T16:42:02.069Z,95447.57
2022-09-02T16:47:36.871Z,95448.25
2022-09-02T16:53:16.068Z,95451.54
2022-09-02T16:56:04.854Z,95457.30
2022-09-02T16:58:53.229Z,95454.72
2022-09-02T17:04:20.576Z,95447.67
2022-09-02T17:09:57.580Z,95435.53
2022-09-02T17:12:45.976Z,95436.65
2022-09-02T17:18:20.771Z,95438.36
2022-09-02T17:21:19.749Z,95442.45
2022-09-02T17:24:09.502Z,95446.75
2022-09-02T17:29:49.849Z,95433.55
2022-09-02T17:32:31.335Z,95437.18
2022-09-02T17:37:59.250Z,95438.01
2022-09-02T17:43:38.233Z,95445.04
2022-09-02T17:49:17.308Z,95458.41
2022-09-02T17:54:53.903Z,95465.02
2022-09-02T18:00:41.343Z,95462.62
2022-09-02T18:06:27.203Z,95456.14
2022-09-02T18:14:56.777Z,95446.25
2022-09-02T18:17:53.386Z,95450.00
2022-09-02T18:20:45.648Z,95441.38
2022-09-02T18:23:54.717Z,95440.20
2022-09-02T18:36:17.615Z,95449.64
2022-09-02T18:41:58.250Z,95439.78
2022-09-02T18:47:34.890Z,95444.55
2022-09-02T18:53:25.485Z,95450.13
2022-09-02T19:11:42.787Z,95459.75
2022-09-02T19:17:32.571Z,95443.40
2022-09-02T19:20:22.747Z,95444.63
2022-09-02T19:23:12.967Z,95448.83
2022-09-02T19:28:48.264Z,95454.46
2022-09-02T19:34:31.474Z,95452.13
2022-09-02T19:37:22.718Z,95454.72
2022-09-02T19:43:01.446Z,95455.69
2022-09-02T19:48:53.495Z,95450.59
2022-09-02T19:54:25.140Z,95457.06
2022-09-02T19:57:16.658Z,95458.08
2022-09-02T20:02:57.741Z,95459.82
2022-09-02T20:08:35.217Z,95451.79
2022-09-02T20:14:09.635Z,95455.75
2022-09-02T20:19:56.536Z,95460.46
2022-09-02T20:25:40.466Z,95466.75
2022-09-02T20:32:08.180Z,95456.69
2022-09-02T20:37:53.146Z,95458.47
2022-09-02T20:40:46.708Z,95456.50
2022-09-02T20:49:53.732Z,95462.78
2022-09-02T20:55:53.221Z,95454.95
2022-09-02T21:01:27.845Z,95456.89
2022-09-02T21:07:16.967Z,95447.86
2022-09-02T21:10:31.464Z,95452.58
2022-09-02T21:16:04.847Z,95457.27
2022-09-02T21:22:04.203Z,95447.45
2022-09-02T21:27:39.519Z,95438.05
2022-09-02T21:30:29.591Z,95446.66
2022-09-02T21:33:19.092Z,95440.39
2022-09-02T21:36:08.366Z,95437.65
2022-09-02T21:41:50.643Z,95436.10
2022-09-02T21:44:45.803Z,95439.39
2022-09-02T21:47:36.736Z,95440.55
2022-09-02T21:50:28.751Z,95441.11
2022-09-02T21:53:19.895Z,95434.86
2022-09-02T21:56:16.183Z,95438.77
2022-09-02T22:02:14.992Z,95431.72
2022-09-02T22:05:07.967Z,95429.38
2022-09-02T22:10:52.019Z,95445.22
2022-09-02T22:16:26.269Z,95439.14
2022-09-02T22:22:08.118Z,95432.48
2022-09-02T22:24:57.898Z,95440.82
2022-09-02T22:30:32.096Z,95432.98
2022-09-02T22:36:08.878Z,95431.41
2022-09-02T22:41:56.672Z,95424.41
2022-09-02T22:47:54.130Z,95430.61
2022-09-02T22:53:31.047Z,95432.77
2022-09-02T22:59:36.427Z,95434.05
2022-09-02T23:02:28.077Z,95435.16
2022-09-02T23:08:10.018Z,95423.72
2022-09-02T23:11:02.716Z,95419.88
2022-09-02T23:16:51.599Z,95422.50
2022-09-02T23:22:37.624Z,95422.56
2022-09-02T23:28:21.150Z,95420.02
2022-09-02T23:34:06.416Z,95439.84
2022-09-02T23:39:46.620Z,95451.03
2022-09-02T23:42:35.913Z,95453.77
2022-09-02T23:48:30.501Z,95458.33
2022-09-02T23:54:18.349Z,95462.55
2022-09-02T23:57:15.452Z,95475.08
